Aviation Digital Data Service (ADDS)

Output produced by TAFs form (0643 UTC 18 February 2018)
found at http://www.aviationweather.gov/adds/tafs/
 
METAR text: RJBT 180600Z 04007KT 010V080 9999 FEW030 BKN/// 03/M08 Q1022
Conditions at: RJBT (TAJIMA , JP) observed 0600 UTC 18 February 2018
Temperature: 3.0°C (37°F)
Dewpoint: -8.0°C (18°F) [RH = 44%]
Pressure (altimeter): 30.18 inches Hg (1022.0 mb)
Winds: from the NE (40 degrees) at 8 MPH (7 knots; 3.6 m/s)
Visibility: 6 or more miles (10+ km)
Ceiling: at least 12,000 feet AGL
Clouds: few clouds at 3000 feet AGL
Weather: no significant weather observed at this time